Flight Track Log - Related Links

Times and Time Zones

All times are in EDT time to prevent confusion due to time zone crossing. See the UAL1062 flight status page for this flight to view local times or setup timezone preferences in your user account.

Time Position Orientation Groundspeed Altitude Reporting Facility
EDT Latitude Longitude Course Direction KTS MPH feet Rate Location/Type
Wed 09:25:06 AM 42.3667 -70.9667 300° West 197 227 1,000  Level KA90
Wed 09:26:36 AM 42.3833 -70.8500 79° East 230 265 4,400 2,250 Climbing KA90
Wed 09:27:00 AM 42.5204 -70.8000 North  Level FlightAware Approximate
Wed 09:27:30 AM 42.4114 -70.7922 57° Northeast 256 295 6,400  Level Boston Center
Wed 09:28:00 AM 42.5935 -70.8636 308° West  Level FlightAware Approximate
Wed 09:28:30 AM 42.4800 -70.7736 11° North 231 266 9,200  Level Boston Center
Wed 09:29:00 AM 42.6469 -70.9657 300° West  Level FlightAware Approximate
Wed 09:29:30 AM 42.5350 -70.8425 317° Northwest 211 243 12,500  Level Boston Center
Wed 09:30:00 AM 42.6924 -71.0749 300° West  Level FlightAware Approximate
Wed 09:30:42 AM 42.6033 -70.9619 308° West 284 327 14,500  Level Boston Center
Wed 09:31:42 AM 42.6653 -71.0678 309° West 348 400 16,600 2,000 Climbing Boston Center
Wed 09:32:42 AM 42.7247 -71.1767 307° West 363 418 18,500 1,650 Climbing Boston Center
Wed 09:33:42 AM 42.7736 -71.2578 309° West 368 423 19,900 1,850 Climbing Boston Center
Wed 09:34:42 AM 42.8022 -71.4269 283° West 368 423 22,200 2,100 Climbing Boston Center
Wed 09:35:42 AM 42.8119 -71.5911 275° West 384 442 24,100 1,650 Climbing Boston Center
Wed 09:36:42 AM 42.8256 -71.7436 277° West 400 460 25,500 1,500 Climbing Boston Center
Wed 09:37:42 AM 42.8408 -71.8992 278° West 408 470 27,100 1,500 Climbing Boston Center
Wed 09:38:42 AM 42.8561 -72.0550 278° West 413 475 28,500 1,350 Climbing Boston Center
Wed 09:39:42 AM 42.8711 -72.2106 278° West 413 475 29,800 750 Climbing Boston Center
Wed 09:40:42 AM 42.8881 -72.3550 279° West 424 488 30,000 50 Climbing Boston Center
Wed 09:41:42 AM 42.9028 -72.5108 277° West 429 494 29,900  Descending Boston Center
Wed 09:42:42 AM 42.9086 -72.6669 273° West 424 488 30,000 50 Climbing Boston Center
Wed 09:43:42 AM 42.9228 -72.8228 277° West 424 488 30,000  Level Boston Center
Wed 09:44:42 AM 42.9347 -72.9875 276° West 432 497 30,000  Level Boston Center
Wed 09:45:42 AM 42.9525 -73.1522 278° West 437 503 30,000  Level Boston Center
Wed 09:46:42 AM 42.9661 -73.3139 277° West 437 503 30,000  Level Boston Center
Wed 09:47:42 AM 42.9750 -73.4928 274° West 437 503 30,000  Level Boston Center
Wed 09:48:42 AM 42.9878 -73.6578 276° West 437 503 30,000 -50 Level Boston Center
Wed 09:49:42 AM 43.0028 -73.8200 277° West 443 510 29,900 -50 Descending Boston Center
Wed 09:50:42 AM 43.0153 -73.9847 276° West 443 510 29,900  Level Boston Center
Wed 09:51:42 AM 43.0275 -74.1469 276° West 443 510 29,900  Level Boston Center
Wed 09:52:54 AM 43.0408 -74.3464 275° West 443 510 29,900  Level Boston Center
Wed 09:53:54 AM 43.0547 -74.5058 277° West 443 510 29,900  Level Boston Center
Wed 09:54:54 AM 43.0644 -74.6539 275° West 443 510 29,900 50 Level Boston Center
Wed 09:55:54 AM 43.0725 -74.7822 275° West 438 504 30,000  Climbing Boston Center
Wed 09:57:06 AM 43.0850 -74.9761 275° West 438 504 29,900 -45 Descending Boston Center
Wed 09:58:06 AM 43.0972 -75.1700 275° West 438 504 29,900  Level Boston Center
Wed 09:59:06 AM 43.1078 -75.3325 275° West 433 498 29,900  Level Boston Center
Wed 10:00:06 AM 43.1200 -75.4981 276° West 433 498 29,900  Level Boston Center
Wed 10:01:06 AM 43.1281 -75.6608 274° West 433 498 29,900 50 Level Boston Center
Wed 10:02:06 AM 43.1381 -75.8233 275° West 433 498 30,000  Climbing Boston Center
Wed 10:03:06 AM 43.1497 -75.9864 276° West 433 498 29,900  Descending Boston Center
Wed 10:05:02 AM 43.1500 -76.3000 270° West 430 495 30,000 34 Climbing Toronto Center
Wed 10:06:02 AM 43.1500 -76.4333 270° West 420 483 30,000  Level Toronto Center
Wed 10:07:02 AM 43.1500 -76.6167 270° West 430 495 30,000  Level Toronto Center
Wed 10:08:02 AM 43.1500 -76.7833 270° West 430 495 30,000  Level Toronto Center
Wed 10:09:02 AM 43.1500 -76.9333 270° West 430 495 30,000  Level Toronto Center
Wed 10:10:02 AM 43.1500 -77.1000 270° West 430 495 30,000  Level Toronto Center
Wed 10:11:02 AM 43.1333 -77.2500 261° West 430 495 30,000  Level Toronto Center
Wed 10:12:02 AM 43.1500 -77.4167 278° West 430 495 30,000  Level Toronto Center
Wed 10:13:02 AM 43.1500 -77.5833 270° West 430 495 30,000  Level Toronto Center
Wed 10:14:02 AM 43.1333 -77.7667 263° West 430 495 30,000  Level Toronto Center
Wed 10:15:02 AM 43.1333 -77.9167 270° West 430 495 30,000  Level Toronto Center
Wed 10:16:02 AM 43.1333 -78.0833 270° West 440 506 30,000  Level Toronto Center
Wed 10:17:02 AM 43.1333 -78.2667 270° West 440 506 30,000  Level Toronto Center
Wed 10:18:02 AM 43.1167 -78.4167 261° West 450 518 30,000  Level Toronto Center
Wed 10:19:02 AM 43.1333 -78.5833 278° West 440 506 30,000  Level Toronto Center
Wed 10:20:02 AM 43.1167 -78.7667 263° West 450 518 30,000  Level Toronto Center
Wed 10:21:02 AM 43.1167 -78.9333 270° West 440 506 30,000  Level Toronto Center
Wed 10:22:02 AM 43.1167 -79.0833 270° West 440 506 30,000  Level Toronto Center
Wed 10:23:02 AM 43.1000 -79.2667 263° West 440 506 30,000  Level Toronto Center
Wed 10:24:02 AM 43.1000 -79.4333 270° West 430 495 30,000  Level Toronto Center
Wed 10:25:02 AM 43.1000 -79.5833 270° West 420 483 30,000  Level Toronto Center
Wed 10:26:02 AM 43.0833 -79.7500 262° West 420 483 30,000  Level Toronto Center
Wed 10:27:02 AM 43.0833 -79.9000 270° West 420 483 30,000  Level Toronto Center
Wed 10:28:02 AM 43.1000 -80.0500 279° West 420 483 30,000  Level Toronto Center
Wed 10:29:02 AM 43.1667 -80.1833 304° West 410 472 30,000  Level Toronto Center
Wed 10:30:02 AM 43.2500 -80.3000 314° West 410 472 30,000  Level Toronto Center
Wed 10:31:02 AM 43.3167 -80.4167 308° West 410 472 30,000  Level Toronto Center
Wed 10:32:02 AM 43.3167 -80.6000 270° West 420 483 30,000  Level Toronto Center
Wed 10:33:02 AM 43.3167 -80.7333 270° West 430 495 30,000  Level Toronto Center
Wed 10:34:02 AM 43.2833 -80.9167 256° West 420 483 30,000  Level Toronto Center
Wed 10:35:02 AM 43.2667 -81.0500 260° West 420 483 30,000  Level Toronto Center
Wed 10:36:02 AM 43.2500 -81.2167 262° West 410 472 30,000  Level Toronto Center
Wed 10:37:02 AM 43.2333 -81.3667 261° West 410 472 30,000  Level Toronto Center
Wed 10:38:02 AM 43.2167 -81.5333 262° West 410 472 30,000  Level Toronto Center
Wed 10:39:02 AM 43.2000 -81.6667 260° West 410 472 30,000  Level Toronto Center
Wed 10:40:02 AM 43.1833 -81.8500 263° West 410 472 30,000  Level Toronto Center
Wed 10:41:02 AM 43.1667 -81.9833 260° West 420 483 30,000  Level Toronto Center
Wed 10:42:02 AM 43.1500 -82.1500 262° West 420 483 30,000  Level Toronto Center
Wed 10:43:02 AM 43.1333 -82.3000 261° West 420 483 30,000  Level Toronto Center
Wed 10:44:02 AM 43.1167 -82.4667 262° West 420 483 30,000  Level Toronto Center
Wed 10:45:02 AM 43.1000 -82.6167 261° West 410 472 30,000  Level Toronto Center
Wed 10:45:34 AM 43.0953 -82.7014 266° West 424 488 30,000  Level Cleveland Center
Wed 10:46:34 AM 43.0778 -82.8542 261° West 424 488 30,000  Level Cleveland Center
Wed 10:47:34 AM 43.0578 -83.0069 260° West 424 488 30,000  Level Cleveland Center
Wed 10:48:34 AM 43.0400 -83.1625 261° West 424 488 30,000  Level Cleveland Center
Wed 10:49:34 AM 43.0217 -83.3181 261° West 424 488 30,000  Level Cleveland Center
Wed 10:50:34 AM 43.0014 -83.4733 260° West 424 488 30,000  Level Cleveland Center
Wed 10:51:34 AM 42.9808 -83.6256 260° West 424 488 30,000  Level Cleveland Center
Wed 10:52:34 AM 42.9572 -83.7975 259° West 424 488 30,000  Level Cleveland Center
Wed 10:53:34 AM 42.9472 -83.9361 264° West 424 488 30,000  Level Cleveland Center
Wed 10:54:34 AM 42.9319 -84.0911 262° West 419 482 30,000  Level Cleveland Center
Wed 10:55:29 AM 42.9203 -84.2156 263° West 414 476 30,000  Level Chicago Center
Wed 10:56:31 AM 42.9014 -84.4014 262° West 413 475 30,000  Level Chicago Center
Wed 10:57:33 AM 42.8869 -84.5561 263° West 413 475 30,000  Level Chicago Center
Wed 10:58:35 AM 42.8708 -84.7108 262° West 413 475 30,000  Level Chicago Center
Wed 10:59:40 AM 42.8539 -84.8672 262° West 417 480 30,000  Level Chicago Center
Wed 11:00:42 AM 42.8347 -85.0536 262° West 415 478 30,000 -48 Level Chicago Center
Wed 11:01:44 AM 42.8175 -85.2092 261° West 414 476 29,900 -532 Descending Chicago Center
Wed 11:02:46 AM 42.8006 -85.3650 262° West 416 479 28,900 -919 Descending Chicago Center
Wed 11:03:48 AM 42.7825 -85.5214 261° West 417 480 28,000 -919 Descending Chicago Center
Wed 11:04:50 AM 42.7531 -85.6794 256° West 425 489 27,000 -968 Descending Chicago Center
Wed 11:05:52 AM 42.7242 -85.8411 256° West 433 498 26,000 -1,210 Descending Chicago Center
Wed 11:06:54 AM 42.6961 -85.9986 256° West 430 495 24,500 -1,984 Descending Chicago Center
Wed 11:07:56 AM 42.6678 -86.1497 256° West 418 481 21,900 -2,226 Descending Chicago Center
Wed 11:08:58 AM 42.6378 -86.3261 257° West 405 466 19,900 -919 Descending Chicago Center
Wed 11:10:00 AM 42.6094 -86.4692 255° West 398 458 20,000 -629 Climbing Chicago Center
Wed 11:11:02 AM 42.5819 -86.6106 255° West 392 451 18,600 -1,756 Descending Chicago Center
Wed 11:12:03 AM 42.5581 -86.7469 257° West 382 440 16,400 -2,244 Descending Chicago Center
Wed 11:13:05 AM 42.5203 -86.8761 248° West 375 432 14,000 -2,226 Descending Chicago Center
Wed 11:14:07 AM 42.4856 -87.0008 249° West 365 420 11,800 -1,984 Descending Chicago Center
Wed 11:15:09 AM 42.4525 -87.1231 250° West 355 409 9,900 -1,355 Descending Chicago Center
Wed 11:16:11 AM 42.4194 -87.2494 251° West 305 351 9,000 -435 Descending Chicago Center
Wed 11:17:13 AM 42.3933 -87.3489 250° West 286 329 9,000 -145 Level Chicago Center
Wed 11:18:15 AM 42.3667 -87.4447 249° West 282 325 8,700 -829 Descending Chicago Center
Wed 11:19:16 AM 42.3278 -87.5369 240° Southwest 286 329 7,300 -1,268 Descending Chicago Center
Wed 11:20:18 AM 42.2533 -87.6111 216° Southwest 280 322 6,100 -1,113 Descending Chicago Center
Wed 11:21:20 AM 42.1969 -87.6772 221° Southwest 273 314 5,000 -823 Descending Chicago Center
Wed 11:22:22 AM 42.1436 -87.7389 221° Southwest 263 303 4,400 -581 Descending Chicago Center

Login

Don't have an account? Register now (free) for customized features, flight alerts, and more!